sensor_id;sensor_type;location;lat;lon;timestamp;pressure;altitude;pressure_sealevel;temperature;humidity
73429;BME280;61643;49.564;17.412;2023-06-14T00:02:07;98003.69;;;11.96;72.43
73429;BME280;61643;49.564;17.412;2023-06-14T00:04:35;98011.22;;;11.94;73.77
73429;BME280;61643;49.564;17.412;2023-06-14T00:07:01;97996.13;;;11.83;73.93
73429;BME280;61643;49.564;17.412;2023-06-14T00:09:27;97996.16;;;11.78;74.26
73429;BME280;61643;49.564;17.412;2023-06-14T00:11:53;97994.81;;;11.75;74.78
73429;BME280;61643;49.564;17.412;2023-06-14T00:14:19;97992.06;;;11.50;77.31
73429;BME280;61643;49.564;17.412;2023-06-14T00:16:45;97994.47;;;11.52;76.83
73429;BME280;61643;49.564;17.412;2023-06-14T00:19:11;97991.22;;;11.40;76.81
73429;BME280;61643;49.564;17.412;2023-06-14T00:21:37;97993.38;;;11.27;78.16
73429;BME280;61643;49.564;17.412;2023-06-14T00:24:04;97990.44;;;11.39;77.17
73429;BME280;61643;49.564;17.412;2023-06-14T00:26:30;98001.44;;;11.22;79.08
73429;BME280;61643;49.564;17.412;2023-06-14T00:28:56;97997.41;;;11.25;79.65
73429;BME280;61643;49.564;17.412;2023-06-14T00:31:23;97996.28;;;11.16;79.86
73429;BME280;61643;49.564;17.412;2023-06-14T00:33:49;97989.00;;;11.06;80.75
73429;BME280;61643;49.564;17.412;2023-06-14T00:36:15;97997.38;;;11.20;80.24
73429;BME280;61643;49.564;17.412;2023-06-14T00:38:40;97994.19;;;11.28;81.69
73429;BME280;61643;49.564;17.412;2023-06-14T00:41:06;97995.00;;;11.28;81.41
73429;BME280;61643;49.564;17.412;2023-06-14T00:43:32;97993.56;;;11.11;83.18
73429;BME280;61643;49.564;17.412;2023-06-14T00:46:00;97997.38;;;11.10;83.60
73429;BME280;61643;49.564;17.412;2023-06-14T00:48:27;97996.03;;;11.12;82.41
73429;BME280;61643;49.564;17.412;2023-06-14T00:50:54;97995.50;;;11.10;83.18
73429;BME280;61643;49.564;17.412;2023-06-14T00:53:20;97999.00;;;11.21;82.68
73429;BME280;61643;49.564;17.412;2023-06-14T00:55:48;97993.63;;;11.26;82.17
73429;BME280;61643;49.564;17.412;2023-06-14T00:58:14;98001.16;;;11.24;82.17
73429;BME280;61643;49.564;17.412;2023-06-14T01:00:41;97998.47;;;11.24;81.92
73429;BME280;61643;49.564;17.412;2023-06-14T01:03:07;98006.28;;;11.20;82.27
73429;BME280;61643;49.564;17.412;2023-06-14T01:05:33;97998.75;;;11.17;83.16
73429;BME280;61643;49.564;17.412;2023-06-14T01:10:34;98000.31;;;11.08;83.63
73429;BME280;61643;49.564;17.412;2023-06-14T01:15:36;98001.84;;;10.89;85.46
73429;BME280;61643;49.564;17.412;2023-06-14T01:18:05;98005.66;;;10.88;85.04
73429;BME280;61643;49.564;17.412;2023-06-14T01:20:32;98009.88;;;10.74;85.04
73429;BME280;61643;49.564;17.412;2023-06-14T01:22:59;98002.31;;;10.71;85.31
73429;BME280;61643;49.564;17.412;2023-06-14T01:25:25;98002.13;;;10.93;82.74
73429;BME280;61643;49.564;17.412;2023-06-14T01:28:01;98005.09;;;10.96;82.48
73429;BME280;61643;49.564;17.412;2023-06-14T01:30:29;97994.94;;;11.03;80.99
73429;BME280;61643;49.564;17.412;2023-06-14T01:32:57;97999.81;;;11.16;80.73
73429;BME280;61643;49.564;17.412;2023-06-14T01:35:24;97997.63;;;11.18;80.40
73429;BME280;61643;49.564;17.412;2023-06-14T01:37:51;97994.94;;;11.13;81.09
73429;BME280;61643;49.564;17.412;2023-06-14T01:40:18;97996.53;;;11.14;80.83
73429;BME280;61643;49.564;17.412;2023-06-14T01:42:47;97999.00;;;11.21;80.60
73429;BME280;61643;49.564;17.412;2023-06-14T01:45:15;98003.88;;;11.24;81.71
73429;BME280;61643;49.564;17.412;2023-06-14T01:47:43;98003.59;;;11.20;82.88
73429;BME280;61643;49.564;17.412;2023-06-14T01:50:10;98002.22;;;11.18;82.53
73429;BME280;61643;49.564;17.412;2023-06-14T01:52:37;97999.25;;;11.14;84.09
73429;BME280;61643;49.564;17.412;2023-06-14T01:55:06;98010.00;;;10.99;85.46
73429;BME280;61643;49.564;17.412;2023-06-14T01:57:33;97996.16;;;10.70;86.38
73429;BME280;61643;49.564;17.412;2023-06-14T01:59:59;98002.75;;;10.53;87.29
73429;BME280;61643;49.564;17.412;2023-06-14T02:02:25;98003.25;;;10.40;87.77
73429;BME280;61643;49.564;17.412;2023-06-14T02:04:51;97997.56;;;10.36;89.09
73429;BME280;61643;49.564;17.412;2023-06-14T02:07:18;97992.19;;;10.36;86.94
73429;BME280;61643;49.564;17.412;2023-06-14T02:09:43;97995.16;;;10.40;87.81
73429;BME280;61643;49.564;17.412;2023-06-14T02:12:09;97985.50;;;10.44;86.66
73429;BME280;61643;49.564;17.412;2023-06-14T02:14:36;97994.91;;;10.41;88.28
73429;BME280;61643;49.564;17.412;2023-06-14T02:17:04;97997.75;;;10.24;86.87
73429;BME280;61643;49.564;17.412;2023-06-14T02:19:30;97991.91;;;10.32;86.92
73429;BME280;61643;49.564;17.412;2023-06-14T02:21:56;98000.00;;;10.38;86.38
73429;BME280;61643;49.564;17.412;2023-06-14T02:24:22;97999.78;;;10.49;86.21
73429;BME280;61643;49.564;17.412;2023-06-14T02:26:49;98004.69;;;10.57;85.77
73429;BME280;61643;49.564;17.412;2023-06-14T02:29:16;98010.34;;;10.61;85.95
73429;BME280;61643;49.564;17.412;2023-06-14T02:31:42;98004.72;;;10.62;86.17
73429;BME280;61643;49.564;17.412;2023-06-14T02:34:08;98012.50;;;10.59;85.92
73429;BME280;61643;49.564;17.412;2023-06-14T02:36:35;98008.38;;;10.46;86.78
73429;BME280;61643;49.564;17.412;2023-06-14T02:39:08;98011.38;;;10.50;86.68
73429;BME280;61643;49.564;17.412;2023-06-14T02:41:35;98004.59;;;10.37;88.13
73429;BME280;61643;49.564;17.412;2023-06-14T02:44:01;98010.97;;;10.26;88.46
73429;BME280;61643;49.564;17.412;2023-06-14T02:46:27;98003.13;;;10.19;90.21
73429;BME280;61643;49.564;17.412;2023-06-14T02:48:52;98010.16;;;10.25;89.59
73429;BME280;61643;49.564;17.412;2023-06-14T02:51:19;98010.19;;;10.30;89.48
73429;BME280;61643;49.564;17.412;2023-06-14T02:53:44;98000.53;;;10.34;89.21
73429;BME280;61643;49.564;17.412;2023-06-14T02:56:10;98012.56;;;10.22;90.71
73429;BME280;61643;49.564;17.412;2023-06-14T02:58:37;98010.38;;;10.19;91.23
73429;BME280;61643;49.564;17.412;2023-06-14T03:01:05;98003.16;;;9.93;94.33
73429;BME280;61643;49.564;17.412;2023-06-14T03:03:33;98002.03;;;10.15;93.08
73429;BME280;61643;49.564;17.412;2023-06-14T03:05:59;97993.19;;;10.20;91.76
73429;BME280;61643;49.564;17.412;2023-06-14T03:08:30;97998.88;;;10.28;91.84
73429;BME280;61643;49.564;17.412;2023-06-14T03:10:57;97994.09;;;10.41;91.61
73429;BME280;61643;49.564;17.412;2023-06-14T03:13:23;98003.53;;;10.38;92.07
73429;BME280;61643;49.564;17.412;2023-06-14T03:15:49;98001.69;;;10.49;91.92
73429;BME280;61643;49.564;17.412;2023-06-14T03:18:18;98000.63;;;10.55;92.17
73429;BME280;61643;49.564;17.412;2023-06-14T03:20:45;98010.88;;;10.58;91.88
73429;BME280;61643;49.564;17.412;2023-06-14T03:23:12;98015.06;;;10.33;94.33
73429;BME280;61643;49.564;17.412;2023-06-14T03:25:38;98004.91;;;10.51;94.00
73429;BME280;61643;49.564;17.412;2023-06-14T03:28:04;98004.69;;;10.57;93.45
73429;BME280;61643;49.564;17.412;2023-06-14T03:30:31;98014.72;;;10.72;92.31
73429;BME280;61643;49.564;17.412;2023-06-14T03:32:57;98012.59;;;10.79;92.61
73429;BME280;61643;49.564;17.412;2023-06-14T03:35:27;98016.13;;;10.84;92.48
73429;BME280;61643;49.564;17.412;2023-06-14T03:37:54;98002.66;;;10.84;92.45
73429;BME280;61643;49.564;17.412;2023-06-14T03:40:20;98016.94;;;10.85;94.74
73429;BME280;61643;49.564;17.412;2023-06-14T03:42:47;98021.50;;;10.84;94.42
73429;BME280;61643;49.564;17.412;2023-06-14T03:45:13;98021.31;;;11.11;92.46
73429;BME280;61643;49.564;17.412;2023-06-14T03:47:39;98014.34;;;11.25;92.09
73429;BME280;61643;49.564;17.412;2023-06-14T03:50:05;98023.81;;;11.33;91.76
73429;BME280;61643;49.564;17.412;2023-06-14T03:52:31;98032.72;;;11.39;89.62
73429;BME280;61643;49.564;17.412;2023-06-14T03:54:58;98030.56;;;11.41;89.65
73429;BME280;61643;49.564;17.412;2023-06-14T03:57:26;98032.50;;;11.65;88.28
73429;BME280;61643;49.564;17.412;2023-06-14T03:59:52;98032.78;;;11.69;88.43
73429;BME280;61643;49.564;17.412;2023-06-14T04:02:18;98038.47;;;11.88;86.41
73429;BME280;61643;49.564;17.412;2023-06-14T04:04:44;98036.06;;;12.06;85.43
73429;BME280;61643;49.564;17.412;2023-06-14T04:07:12;98030.94;;;12.25;84.34
73429;BME280;61643;49.564;17.412;2023-06-14T04:09:39;98039.25;;;12.39;84.06
73429;BME280;61643;49.564;17.412;2023-06-14T04:12:06;98041.13;;;12.48;84.07
73429;BME280;61643;49.564;17.412;2023-06-14T04:14:32;98045.22;;;12.30;82.44
73429;BME280;61643;49.564;17.412;2023-06-14T04:16:58;98043.56;;;12.50;81.63
73429;BME280;61643;49.564;17.412;2023-06-14T04:19:24;98037.38;;;12.24;82.47
73429;BME280;61643;49.564;17.412;2023-06-14T04:21:51;98039.78;;;12.46;82.76
73429;BME280;61643;49.564;17.412;2023-06-14T04:24:17;98037.84;;;12.76;80.93
73429;BME280;61643;49.564;17.412;2023-06-14T04:26:43;98041.59;;;12.86;81.23
73429;BME280;61643;49.564;17.412;2023-06-14T04:29:14;98037.44;;;13.13;80.63
73429;BME280;61643;49.564;17.412;2023-06-14T04:31:45;98038.28;;;13.04;79.26
73429;BME280;61643;49.564;17.412;2023-06-14T04:34:12;98041.03;;;12.89;77.57
73429;BME280;61643;49.564;17.412;2023-06-14T04:36:44;98033.66;;;13.14;76.87
73429;BME280;61643;49.564;17.412;2023-06-14T04:39:20;98038.31;;;12.94;78.08
73429;BME280;61643;49.564;17.412;2023-06-14T04:41:47;98035.56;;;12.99;77.46
73429;BME280;61643;49.564;17.412;2023-06-14T04:44:13;98043.66;;;13.14;76.82
73429;BME280;61643;49.564;17.412;2023-06-14T04:46:39;98047.41;;;13.23;77.54
73429;BME280;61643;49.564;17.412;2023-06-14T04:49:13;98048.91;;;13.44;75.02
73429;BME280;61643;49.564;17.412;2023-06-14T04:51:45;98061.78;;;13.62;75.06
73429;BME280;61643;49.564;17.412;2023-06-14T04:54:11;98061.56;;;13.59;75.26
73429;BME280;61643;49.564;17.412;2023-06-14T04:56:41;98059.03;;;13.67;76.29
73429;BME280;61643;49.564;17.412;2023-06-14T04:59:12;98055.44;;;13.82;72.78
73429;BME280;61643;49.564;17.412;2023-06-14T05:01:38;98070.47;;;13.59;74.21
73429;BME280;61643;49.564;17.412;2023-06-14T05:04:04;98064.84;;;13.51;74.83
73429;BME280;61643;49.564;17.412;2023-06-14T05:06:30;98063.22;;;13.50;73.35
73429;BME280;61643;49.564;17.412;2023-06-14T05:08:57;98055.66;;;13.52;74.07
73429;BME280;61643;49.564;17.412;2023-06-14T05:11:23;98060.56;;;13.40;76.98
73429;BME280;61643;49.564;17.412;2023-06-14T05:13:52;98066.22;;;13.48;76.17
73429;BME280;61643;49.564;17.412;2023-06-14T05:16:18;98072.44;;;13.49;76.03
73429;BME280;61643;49.564;17.412;2023-06-14T05:18:46;98056.78;;;13.41;76.05
73429;BME280;61643;49.564;17.412;2023-06-14T05:21:13;98066.53;;;13.31;76.45
73429;BME280;61643;49.564;17.412;2023-06-14T05:23:41;98072.31;;;13.10;76.29
73429;BME280;61643;49.564;17.412;2023-06-14T05:26:07;98069.34;;;13.01;76.15
73429;BME280;61643;49.564;17.412;2023-06-14T05:28:36;98070.94;;;13.22;77.87
73429;BME280;61643;49.564;17.412;2023-06-14T05:31:02;98059.19;;;13.47;77.10
73429;BME280;61643;49.564;17.412;2023-06-14T05:33:28;98082.88;;;13.65;78.47
73429;BME280;61643;49.564;17.412;2023-06-14T05:35:54;98071.13;;;13.85;77.44
73429;BME280;61643;49.564;17.412;2023-06-14T05:38:21;98079.75;;;13.87;77.35
73429;BME280;61643;49.564;17.412;2023-06-14T05:40:47;98079.78;;;13.82;78.09
73429;BME280;61643;49.564;17.412;2023-06-14T05:43:13;98077.03;;;13.92;75.82
73429;BME280;61643;49.564;17.412;2023-06-14T05:45:39;98080.56;;;13.88;76.29
73429;BME280;61643;49.564;17.412;2023-06-14T05:48:05;98073.78;;;13.90;77.10
73429;BME280;61643;49.564;17.412;2023-06-14T05:50:31;98081.13;;;13.85;76.35
73429;BME280;61643;49.564;17.412;2023-06-14T05:52:57;98085.63;;;13.99;76.79
73429;BME280;61643;49.564;17.412;2023-06-14T05:55:23;98079.72;;;13.92;75.07
73429;BME280;61643;49.564;17.412;2023-06-14T05:57:49;98091.56;;;14.01;74.08
73429;BME280;61643;49.564;17.412;2023-06-14T06:00:15;98085.88;;;14.03;74.87
73429;BME280;61643;49.564;17.412;2023-06-14T06:02:42;98087.56;;;14.27;74.55
73429;BME280;61643;49.564;17.412;2023-06-14T06:05:13;98097.84;;;14.30;75.17
73429;BME280;61643;49.564;17.412;2023-06-14T06:07:39;98099.41;;;14.42;73.49
73429;BME280;61643;49.564;17.412;2023-06-14T06:10:11;98098.91;;;14.35;75.14
73429;BME280;61643;49.564;17.412;2023-06-14T06:12:37;98110.28;;;14.32;74.80
73429;BME280;61643;49.564;17.412;2023-06-14T06:15:03;98108.94;;;14.29;74.53
73429;BME280;61643;49.564;17.412;2023-06-14T06:17:30;98116.78;;;14.36;75.46
73429;BME280;61643;49.564;17.412;2023-06-14T06:19:56;98117.69;;;14.21;76.51
73429;BME280;61643;49.564;17.412;2023-06-14T06:22:22;98117.44;;;13.73;77.92
73429;BME280;61643;49.564;17.412;2023-06-14T06:24:48;98117.59;;;13.43;79.33
73429;BME280;61643;49.564;17.412;2023-06-14T06:27:13;98124.38;;;13.41;80.57
73429;BME280;61643;49.564;17.412;2023-06-14T06:29:42;98121.03;;;13.59;80.30
73429;BME280;61643;49.564;17.412;2023-06-14T06:32:09;98126.81;;;13.86;79.99
73429;BME280;61643;49.564;17.412;2023-06-14T06:34:35;98131.31;;;14.06;78.60
73429;BME280;61643;49.564;17.412;2023-06-14T06:37:01;98129.78;;;13.90;78.60
73429;BME280;61643;49.564;17.412;2023-06-14T06:39:27;98127.53;;;14.07;78.07
73429;BME280;61643;49.564;17.412;2023-06-14T06:41:53;98129.34;;;13.77;79.36
73429;BME280;61643;49.564;17.412;2023-06-14T06:44:19;98133.78;;;14.02;78.62
73429;BME280;61643;49.564;17.412;2023-06-14T06:46:45;98137.84;;;14.00;77.69
73429;BME280;61643;49.564;17.412;2023-06-14T06:49:11;98127.88;;;13.95;79.04
73429;BME280;61643;49.564;17.412;2023-06-14T06:51:43;98134.59;;;13.98;78.59
73429;BME280;61643;49.564;17.412;2023-06-14T06:54:10;98146.22;;;14.03;78.74
73429;BME280;61643;49.564;17.412;2023-06-14T06:56:36;98152.00;;;14.25;78.85
73429;BME280;61643;49.564;17.412;2023-06-14T06:59:02;98151.16;;;14.30;77.34
73429;BME280;61643;49.564;17.412;2023-06-14T07:01:28;98156.06;;;14.28;76.37
73429;BME280;61643;49.564;17.412;2023-06-14T07:03:55;98148.28;;;14.21;77.02
73429;BME280;61643;49.564;17.412;2023-06-14T07:06:21;98150.41;;;14.24;77.63
73429;BME280;61643;49.564;17.412;2023-06-14T07:08:47;98150.66;;;14.62;77.23
73429;BME280;61643;49.564;17.412;2023-06-14T07:11:16;98149.81;;;14.66;75.65
73429;BME280;61643;49.564;17.412;2023-06-14T07:13:42;98139.66;;;14.82;76.15
73429;BME280;61643;49.564;17.412;2023-06-14T07:16:08;98142.25;;;14.92;74.53
73429;BME280;61643;49.564;17.412;2023-06-14T07:18:34;98141.06;;;15.03;74.32
73429;BME280;61643;49.564;17.412;2023-06-14T07:21:00;98147.22;;;15.09;73.82
73429;BME280;61643;49.564;17.412;2023-06-14T07:23:26;98160.19;;;14.88;72.99
73429;BME280;61643;49.564;17.412;2023-06-14T07:25:52;98159.75;;;14.76;72.32
73429;BME280;61643;49.564;17.412;2023-06-14T07:28:18;98164.78;;;14.88;72.50
73429;BME280;61643;49.564;17.412;2023-06-14T07:30:44;98157.50;;;14.83;73.69
73429;BME280;61643;49.564;17.412;2023-06-14T07:33:10;98164.50;;;15.18;73.71
73429;BME280;61643;49.564;17.412;2023-06-14T07:35:38;98163.44;;;15.38;72.88
73429;BME280;61643;49.564;17.412;2023-06-14T07:38:03;98156.09;;;15.43;74.37
73429;BME280;61643;49.564;17.412;2023-06-14T07:40:29;98159.75;;;15.57;70.84
73429;BME280;61643;49.564;17.412;2023-06-14T07:42:55;98171.31;;;15.63;69.86
73429;BME280;61643;49.564;17.412;2023-06-14T07:45:21;98167.78;;;15.39;70.78
73429;BME280;61643;49.564;17.412;2023-06-14T07:47:47;98170.31;;;15.59;70.72
73429;BME280;61643;49.564;17.412;2023-06-14T07:50:13;98181.25;;;15.72;68.87
73429;BME280;61643;49.564;17.412;2023-06-14T07:52:39;98176.06;;;15.76;68.20
73429;BME280;61643;49.564;17.412;2023-06-14T07:55:06;98180.09;;;15.79;69.56
73429;BME280;61643;49.564;17.412;2023-06-14T07:57:32;98183.44;;;15.70;68.78
73429;BME280;61643;49.564;17.412;2023-06-14T07:59:58;98172.84;;;15.93;69.70
73429;BME280;61643;49.564;17.412;2023-06-14T08:02:24;98171.78;;;15.70;68.30
73429;BME280;61643;49.564;17.412;2023-06-14T08:04:50;98169.59;;;15.72;68.25
73429;BME280;61643;49.564;17.412;2023-06-14T08:07:16;98163.44;;;15.85;70.33
73429;BME280;61643;49.564;17.412;2023-06-14T08:09:42;98167.44;;;16.11;70.09
73429;BME280;61643;49.564;17.412;2023-06-14T08:12:08;98166.13;;;16.28;70.71
73429;BME280;61643;49.564;17.412;2023-06-14T08:14:35;98165.59;;;16.25;67.80
73429;BME280;61643;49.564;17.412;2023-06-14T08:17:01;98167.06;;;16.37;67.03
73429;BME280;61643;49.564;17.412;2023-06-14T08:19:27;98165.75;;;16.34;68.06
73429;BME280;61643;49.564;17.412;2023-06-14T08:21:53;98167.34;;;16.35;67.04
73429;BME280;61643;49.564;17.412;2023-06-14T08:24:21;98164.78;;;16.44;68.81
73429;BME280;61643;49.564;17.412;2023-06-14T08:26:50;98171.19;;;16.34;64.69
73429;BME280;61643;49.564;17.412;2023-06-14T08:29:16;98173.75;;;16.25;63.26
73429;BME280;61643;49.564;17.412;2023-06-14T08:31:42;98170.38;;;16.34;67.70
73429;BME280;61643;49.564;17.412;2023-06-14T08:34:08;98172.00;;;16.35;65.21
73429;BME280;61643;49.564;17.412;2023-06-14T08:36:37;98171.09;;;16.39;64.55
73429;BME280;61643;49.564;17.412;2023-06-14T08:39:03;98171.91;;;16.58;63.19
73429;BME280;61643;49.564;17.412;2023-06-14T08:41:29;98178.72;;;16.18;61.18
73429;BME280;61643;49.564;17.412;2023-06-14T08:43:56;98168.69;;;16.19;62.83
73429;BME280;61643;49.564;17.412;2023-06-14T08:46:25;98169.41;;;16.24;63.71
73429;BME280;61643;49.564;17.412;2023-06-14T08:48:55;98162.50;;;15.95;62.03
73429;BME280;61643;49.564;17.412;2023-06-14T08:51:25;98155.91;;;16.19;64.67
73429;BME280;61643;49.564;17.412;2023-06-14T08:53:53;98156.63;;;16.06;62.88
73429;BME280;61643;49.564;17.412;2023-06-14T08:56:25;98155.31;;;16.04;59.29
73429;BME280;61643;49.564;17.412;2023-06-14T08:58:53;98159.06;;;16.08;62.20
73429;BME280;61643;49.564;17.412;2023-06-14T09:01:20;98169.50;;;16.19;61.19
73429;BME280;61643;49.564;17.412;2023-06-14T09:03:48;98164.34;;;16.37;61.56
73429;BME280;61643;49.564;17.412;2023-06-14T09:06:14;98167.03;;;16.55;62.43
73429;BME280;61643;49.564;17.412;2023-06-14T09:08:47;98162.88;;;16.63;62.42
73429;BME280;61643;49.564;17.412;2023-06-14T09:11:16;98168.84;;;16.79;62.31
73429;BME280;61643;49.564;17.412;2023-06-14T09:13:45;98176.75;;;16.61;61.91
73429;BME280;61643;49.564;17.412;2023-06-14T09:16:12;98160.75;;;16.60;60.60
73429;BME280;61643;49.564;17.412;2023-06-14T09:18:43;98168.81;;;16.65;61.99
73429;BME280;61643;49.564;17.412;2023-06-14T09:21:11;98171.84;;;16.63;60.49
73429;BME280;61643;49.564;17.412;2023-06-14T09:23:41;98168.41;;;16.71;60.82
73429;BME280;61643;49.564;17.412;2023-06-14T09:26:16;98160.81;;;16.87;61.39
73429;BME280;61643;49.564;17.412;2023-06-14T09:28:47;98168.19;;;17.00;60.78
73429;BME280;61643;49.564;17.412;2023-06-14T09:31:17;98161.63;;;16.88;61.83
73429;BME280;61643;49.564;17.412;2023-06-14T09:33:45;98165.03;;;16.80;60.56
73429;BME280;61643;49.564;17.412;2023-06-14T09:36:18;98167.97;;;16.97;58.72
73429;BME280;61643;49.564;17.412;2023-06-14T09:38:54;98169.13;;;17.23;59.11
73429;BME280;61643;49.564;17.412;2023-06-14T09:41:20;98172.66;;;17.10;58.45
73429;BME280;61643;49.564;17.412;2023-06-14T09:43:47;98162.38;;;17.20;59.23
73429;BME280;61643;49.564;17.412;2023-06-14T09:46:14;98169.13;;;17.09;59.15
73429;BME280;61643;49.564;17.412;2023-06-14T09:48:40;98170.03;;;17.18;59.73
73429;BME280;61643;49.564;17.412;2023-06-14T09:51:10;98167.03;;;17.20;60.96
73429;BME280;61643;49.564;17.412;2023-06-14T09:53:40;98158.25;;;17.23;59.06
73429;BME280;61643;49.564;17.412;2023-06-14T09:56:07;98168.25;;;17.41;60.46
73429;BME280;61643;49.564;17.412;2023-06-14T09:58:35;98159.19;;;17.46;56.77
73429;BME280;61643;49.564;17.412;2023-06-14T10:01:04;98159.81;;;17.56;57.21
73429;BME280;61643;49.564;17.412;2023-06-14T10:03:33;98160.81;;;17.60;57.58
73429;BME280;61643;49.564;17.412;2023-06-14T10:06:02;98163.03;;;17.72;55.82
73429;BME280;61643;49.564;17.412;2023-06-14T10:08:30;98158.31;;;17.64;54.76
73429;BME280;61643;49.564;17.412;2023-06-14T10:10:58;98157.34;;;17.96;58.13
73429;BME280;61643;49.564;17.412;2023-06-14T10:13:26;98155.34;;;18.01;56.06
73429;BME280;61643;49.564;17.412;2023-06-14T10:18:38;98150.22;;;17.86;55.76
73429;BME280;61643;49.564;17.412;2023-06-14T10:23:47;98146.25;;;17.92;54.84
73429;BME280;61643;49.564;17.412;2023-06-14T10:26:20;98144.91;;;18.03;52.90
73429;BME280;61643;49.564;17.412;2023-06-14T10:28:58;98155.00;;;18.03;54.79
73429;BME280;61643;49.564;17.412;2023-06-14T10:34:06;98152.19;;;17.94;56.45
73429;BME280;61643;49.564;17.412;2023-06-14T10:36:32;98150.00;;;17.69;54.85
73429;BME280;61643;49.564;17.412;2023-06-14T10:39:06;98154.94;;;17.53;54.94
73429;BME280;61643;49.564;17.412;2023-06-14T10:41:40;98152.31;;;17.48;56.42
73429;BME280;61643;49.564;17.412;2023-06-14T10:47:00;98145.91;;;17.72;54.16
73429;BME280;61643;49.564;17.412;2023-06-14T10:49:41;98140.81;;;17.92;54.77
73429;BME280;61643;49.564;17.412;2023-06-14T10:52:15;98146.41;;;18.09;54.03
73429;BME280;61643;49.564;17.412;2023-06-14T10:55:00;98134.72;;;18.09;52.57
73429;BME280;61643;49.564;17.412;2023-06-14T10:57:36;98121.53;;;18.25;55.37
73429;BME280;61643;49.564;17.412;2023-06-14T11:00:04;98129.56;;;18.43;54.03
73429;BME280;61643;49.564;17.412;2023-06-14T11:11:14;98133.78;;;18.13;55.32
73429;BME280;61643;49.564;17.412;2023-06-14T11:13:45;98141.53;;;18.20;55.81
73429;BME280;61643;49.564;17.412;2023-06-14T11:16:13;98136.16;;;18.29;52.50
73429;BME280;61643;49.564;17.412;2023-06-14T11:18:41;98129.59;;;18.07;51.72
73429;BME280;61643;49.564;17.412;2023-06-14T11:21:07;98134.72;;;18.09;54.25
73429;BME280;61643;49.564;17.412;2023-06-14T11:23:35;98126.38;;;18.28;57.45
73429;BME280;61643;49.564;17.412;2023-06-14T11:26:01;98132.81;;;18.32;57.44
73429;BME280;61643;49.564;17.412;2023-06-14T11:28:40;98127.38;;;18.32;56.33
73429;BME280;61643;49.564;17.412;2023-06-14T11:31:09;98130.09;;;18.32;54.56
73429;BME280;61643;49.564;17.412;2023-06-14T11:33:35;98130.00;;;18.37;54.06
73429;BME280;61643;49.564;17.412;2023-06-14T11:36:02;98129.00;;;18.33;54.66
73429;BME280;61643;49.564;17.412;2023-06-14T11:38:30;98126.38;;;18.50;56.22
73429;BME280;61643;49.564;17.412;2023-06-14T11:40:59;98121.94;;;18.76;56.32
73429;BME280;61643;49.564;17.412;2023-06-14T11:43:26;98120.13;;;18.94;54.62
73429;BME280;61643;49.564;17.412;2023-06-14T11:45:52;98117.16;;;19.12;53.01
73429;BME280;61643;49.564;17.412;2023-06-14T11:48:18;98122.91;;;19.02;52.23
73429;BME280;61643;49.564;17.412;2023-06-14T11:50:49;98119.13;;;19.21;51.34
73429;BME280;61643;49.564;17.412;2023-06-14T11:53:16;98105.41;;;19.03;50.09
73429;BME280;61643;49.564;17.412;2023-06-14T11:55:42;98117.28;;;18.99;51.22
73429;BME280;61643;49.564;17.412;2023-06-14T11:58:11;98107.50;;;19.06;52.07
73429;BME280;61643;49.564;17.412;2023-06-14T12:00:37;98103.97;;;19.06;51.00
73429;BME280;61643;49.564;17.412;2023-06-14T12:03:03;98106.19;;;18.95;52.05
73429;BME280;61643;49.564;17.412;2023-06-14T12:05:29;98109.59;;;18.79;51.07
73429;BME280;61643;49.564;17.412;2023-06-14T12:08:02;98111.72;;;18.59;52.29
73429;BME280;61643;49.564;17.412;2023-06-14T12:10:29;98111.34;;;18.52;52.69
73429;BME280;61643;49.564;17.412;2023-06-14T12:12:59;98119.31;;;18.49;54.10
73429;BME280;61643;49.564;17.412;2023-06-14T12:15:28;98110.59;;;18.38;54.55
73429;BME280;61643;49.564;17.412;2023-06-14T12:17:57;98102.59;;;18.19;53.46
73429;BME280;61643;49.564;17.412;2023-06-14T12:20:29;98107.88;;;18.38;51.22
73429;BME280;61643;49.564;17.412;2023-06-14T12:22:56;98105.13;;;18.52;51.21
73429;BME280;61643;49.564;17.412;2023-06-14T12:25:33;98100.22;;;18.62;50.80
73429;BME280;61643;49.564;17.412;2023-06-14T12:28:04;98094.00;;;19.01;50.81
73429;BME280;61643;49.564;17.412;2023-06-14T12:30:32;98098.59;;;19.32;49.21
73429;BME280;61643;49.564;17.412;2023-06-14T12:32:59;98092.97;;;19.20;52.18
73429;BME280;61643;49.564;17.412;2023-06-14T12:35:26;98083.59;;;19.51;49.20
73429;BME280;61643;49.564;17.412;2023-06-14T12:37:51;98088.78;;;19.79;49.27
73429;BME280;61643;49.564;17.412;2023-06-14T12:40:18;98081.75;;;20.03;50.21
73429;BME280;61643;49.564;17.412;2023-06-14T12:42:45;98085.13;;;20.09;50.50
73429;BME280;61643;49.564;17.412;2023-06-14T12:45:13;98089.16;;;19.86;48.24
73429;BME280;61643;49.564;17.412;2023-06-14T12:47:39;98076.25;;;19.60;49.88
73429;BME280;61643;49.564;17.412;2023-06-14T12:50:05;98081.78;;;19.38;51.26
73429;BME280;61643;49.564;17.412;2023-06-14T12:52:32;98081.78;;;19.38;49.61
73429;BME280;61643;49.564;17.412;2023-06-14T12:55:05;98081.28;;;19.28;50.70
73429;BME280;61643;49.564;17.412;2023-06-14T12:57:31;98082.56;;;19.30;51.74
73429;BME280;61643;49.564;17.412;2023-06-14T12:59:59;98074.44;;;19.08;52.97
73429;BME280;61643;49.564;17.412;2023-06-14T13:02:25;98081.00;;;18.98;50.53
73429;BME280;61643;49.564;17.412;2023-06-14T13:04:51;98075.19;;;18.91;51.74
73429;BME280;61643;49.564;17.412;2023-06-14T13:07:17;98078.00;;;19.08;49.44
73429;BME280;61643;49.564;17.412;2023-06-14T13:09:43;98079.88;;;19.39;54.06
73429;BME280;61643;49.564;17.412;2023-06-14T13:12:10;98075.25;;;19.48;48.02
73429;BME280;61643;49.564;17.412;2023-06-14T13:14:38;98074.88;;;19.41;48.69
73429;BME280;61643;49.564;17.412;2023-06-14T13:17:05;98071.53;;;19.44;50.85